| time (UTC) | temp F | wind direction | speed MPH | gust MPH | rain 1hr in | rain 24hr in | rain mn in | humidity % | barometer mb |
| 20260508191532 | 72 | 17 | 5.0 | 15.0 | 0.00 | 0.00 | 0.00 | 25 | 1018.7 |
| 20260508190032 | 71 | 276 | 2.0 | 6.0 | 0.00 | 0.00 | 0.00 | 28 | 1019.0 |
| 20260508184534 | 70 | 294 | 1.0 | 4.0 | 0.00 | 0.00 | 0.00 | 32 | 1019.2 |
| 20260508183029 | 70 | 0 | 2.0 | 8.0 | 0.00 | 0.00 | 0.00 | 28 | 1019.2 |
| 20260508181545 | 71 | 257 | 1.0 | 8.0 | 0.00 | 0.00 | 0.00 | 32 | 1019.4 |
| 20260508180030 | 70 | 234 | 1.0 | 5.0 | 0.00 | 0.00 | 0.00 | 32 | 1019.3 |
| 20260508174537 | 69 | 0 | 3.0 | 8.0 | 0.00 | 0.00 | 0.00 | 28 | 1019.4 |
| 20260508173039 | 70 | 244 | 1.0 | 6.0 | 0.00 | 0.00 | 0.00 | 30 | 1019.4 |
| 20260508171534 | 70 | 261 | 4.0 | 9.0 | 0.00 | 0.00 | 0.00 | 37 | 1019.3 |
| 20260508170033 | 70 | 0 | 2.0 | 7.0 | 0.00 | 0.00 | 0.00 | 38 | 1019.2 |
| 20260508164530 | 69 | 0 | 0.0 | 7.0 | 0.00 | 0.00 | 0.00 | 38 | 1019.2 |
| 20260508163031 | 69 | 0 | 0.0 | 6.0 | 0.00 | 0.00 | 0.00 | 38 | 1019.2 |
| 20260508161533 | 68 | 0 | 1.0 | 5.0 | 0.00 | 0.00 | 0.00 | 40 | 1019.2 |
| 20260508160031 | 67 | 250 | 1.0 | 4.0 | 0.00 | 0.00 | 0.00 | 38 | 1019.0 |
| 20260508154532 | 65 | 53 | 1.0 | 4.0 | 0.00 | 0.00 | 0.00 | 40 | 1019.0 |
| 20260508153041 | 65 | 0 | 0.0 | 3.0 | 0.00 | 0.00 | 0.00 | 42 | 1019.0 |
| 20260508151530 | 64 | 0 | 0.0 | 2.0 | 0.00 | 0.00 | 0.00 | 42 | 1018.9 |
| 20260508150030 | 62 | 0 | 0.0 | 2.0 | 0.00 | 0.00 | 0.00 | 52 | 1018.8 |
| 20260508144532 | 58 | 0 | 0.0 | 1.0 | 0.00 | 0.00 | 0.00 | 56 | 1018.7 |
| 20260508143029 | 54 | 0 | 0.0 | 0.0 | 0.00 | 0.00 | 0.00 | 63 | 1018.9 |
| 20260508141529 | 49 | 0 | 0.0 | 0.0 | 0.00 | 0.00 | 0.00 | 73 | 1018.7 |
| 20260508140033 | 46 | 0 | 0.0 | 0.0 | 0.00 | 0.00 | 0.00 | 70 | 1018.5 |
| 20260508134530 | 46 | 0 | 0.0 | 0.0 | 0.00 | 0.00 | 0.00 | 68 | 1018.6 |
| 20260508133043 | 47 | 0 | 0.0 | 0.0 | 0.00 | 0.00 | 0.00 | 68 | 1018.5 |
| 20260508131532 | 47 | 0 | 0.0 | 0.0 | 0.00 | 0.00 | 0.00 | 66 | 1018.3 |
| 20260508130030 | 47 | 0 | 0.0 | 0.0 | 0.00 | 0.00 | 0.00 | 67 | 1018.1 |
| 20260508124528 | 47 | 0 | 0.0 | 0.0 | 0.00 | 0.00 | 0.00 | 64 | 1018.0 |
| 20260508123030 | 48 | 0 | 0.0 | 0.0 | 0.00 | 0.00 | 0.00 | 60 | 1017.7 |
| 20260508121532 | 48 | 0 | 0.0 | 0.0 | 0.00 | 0.00 | 0.00 | 61 | 1017.7 |
| 20260508120031 | 48 | 0 | 0.0 | 0.0 | 0.00 | 0.00 | 0.00 | 60 | 1017.6 |
| 20260508114531 | 48 | 0 | 0.0 | 0.0 | 0.00 | 0.00 | 0.00 | 60 | 1017.5 |
| 20260508113031 | 49 | 0 | 0.0 | 0.0 | 0.00 | 0.00 | 0.00 | 60 | 1017.3 |
| 20260508111528 | 49 | 0 | 0.0 | 0.0 | 0.00 | 0.00 | 0.00 | 60 | 1017.3 |
| 20260508110030 | 49 | 0 | 0.0 | 2.0 | 0.00 | 0.00 | 0.00 | 59 | 1017.0 |
| 20260508104529 | 49 | 0 | 0.0 | 2.0 | 0.00 | 0.00 | 0.00 | 57 | 1017.0 |
| 20260508103030 | 50 | 0 | 0.0 | 1.0 | 0.00 | 0.00 | 0.00 | 58 | 1017.0 |
| 20260508101532 | 50 | 0 | 0.0 | 1.0 | 0.00 | 0.00 | 0.00 | 55 | 1017.0 |
| 20260508100030 | 50 | 0 | 0.0 | 0.0 | 0.00 | 0.00 | 0.00 | 54 | 1017.0 |
| 20260508094529 | 51 | 0 | 0.0 | 0.0 | 0.00 | 0.00 | 0.00 | 54 | 1016.8 |
| 20260508093029 | 51 | 0 | 0.0 | 1.0 | 0.00 | 0.00 | 0.00 | 53 | 1016.7 |
| 20260508091529 | 50 | 321 | 0.0 | 0.0 | 0.00 | 0.00 | 0.00 | 58 | 1016.7 |
| 20260508090034 | 50 | 0 | 0.0 | 0.0 | 0.00 | 0.00 | 0.00 | 53 | 1016.5 |
| 20260508084530 | 51 | 0 | 0.0 | 1.0 | 0.00 | 0.00 | 0.00 | 56 | 1016.6 |
| 20260508083031 | 51 | 0 | 0.0 | 0.0 | 0.00 | 0.00 | 0.00 | 53 | 1016.8 |
| 20260508081534 | 51 | 0 | 0.0 | 2.0 | 0.00 | 0.00 | 0.00 | 54 | 1016.7 |
| 20260508080032 | 51 | 0 | 0.0 | 0.0 | 0.00 | 0.00 | 0.00 | 52 | 1016.8 |
| 20260508074530 | 52 | 0 | 0.0 | 1.0 | 0.00 | 0.00 | 0.00 | 53 | 1016.7 |
| 20260508073030 | 52 | 0 | 0.0 | 1.0 | 0.00 | 0.00 | 0.00 | 52 | 1016.8 |
| 20260508071532 | 52 | 0 | 0.0 | 0.0 | 0.00 | 0.00 | 0.00 | 52 | 1016.9 |
| 20260508070029 | 52 | 0 | 0.0 | 0.0 | 0.00 | 0.00 | 0.00 | 51 | 1016.8 |
| 20260508064531 | 53 | 0 | 0.0 | 0.0 | 0.00 | 0.00 | 0.00 | 52 | 1016.8 |
| 20260508063030 | 54 | 0 | 0.0 | 0.0 | 0.00 | 0.00 | 0.00 | 50 | 1016.7 |
| 20260508061531 | 54 | 0 | 0.0 | 0.0 | 0.00 | 0.00 | 0.00 | 50 | 1016.6 |
| 20260508060030 | 54 | 0 | 0.0 | 0.0 | 0.00 | 0.00 | 0.00 | 48 | 1016.4 |
| 20260508054538 | 54 | 0 | 0.0 | 0.0 | 0.00 | 0.00 | 0.00 | 48 | 1016.3 |
| 20260508053032 | 55 | 0 | 0.0 | 0.0 | 0.00 | 0.00 | 0.00 | 50 | 1016.2 |
| 20260508051532 | 55 | 0 | 0.0 | 0.0 | 0.00 | 0.00 | 0.00 | 47 | 1016.3 |
| 20260508050030 | 55 | 0 | 0.0 | 0.0 | 0.00 | 0.00 | 0.00 | 47 | 1016.3 |
| 20260508044534 | 55 | 0 | 0.0 | 0.0 | 0.00 | 0.00 | 0.00 | 50 | 1016.3 |
| 20260508043031 | 56 | 0 | 0.0 | 0.0 | 0.00 | 0.00 | 0.00 | 47 | 1016.4 |
| 20260508041528 | 57 | 0 | 0.0 | 2.0 | 0.00 | 0.00 | 0.00 | 46 | 1016.4 |
| 20260508040032 | 58 | 0 | 0.0 | 0.0 | 0.00 | 0.00 | 0.00 | 44 | 1016.3 |
| 20260508034538 | 60 | 0 | 0.0 | 3.0 | 0.00 | 0.00 | 0.00 | 41 | 1016.2 |
| 20260508033031 | 61 | 0 | 0.0 | 1.0 | 0.00 | 0.00 | 0.00 | 42 | 1016.1 |
| 20260508031530 | 63 | 0 | 0.0 | 3.0 | 0.00 | 0.00 | 0.00 | 37 | 1016.1 |
| 20260508030030 | 64 | 0 | 0.0 | 2.0 | 0.00 | 0.00 | 0.00 | 34 | 1015.8 |
| 20260508024535 | 66 | 0 | 0.0 | 0.0 | 0.00 | 0.00 | 0.00 | 34 | 1015.6 |
| 20260508023032 | 69 | 0 | 0.0 | 0.0 | 0.00 | 0.00 | 0.00 | 31 | 1015.7 |
| 20260508021530 | 71 | 0 | 0.0 | 0.0 | 0.00 | 0.00 | 0.00 | 27 | 1015.5 |
| 20260508020031 | 72 | 0 | 0.0 | 2.0 | 0.00 | 0.00 | 0.00 | 27 | 1015.5 |
| 20260508014531 | 72 | 355 | 0.0 | 2.0 | 0.00 | 0.00 | 0.00 | 26 | 1015.4 |
| 20260508013031 | 72 | 0 | 0.0 | 3.0 | 0.00 | 0.00 | 0.00 | 26 | 1015.4 |
| 20260508011539 | 71 | 26 | 1.0 | 3.0 | 0.00 | 0.00 | 0.00 | 27 | 1015.5 |
| 20260508010032 | 71 | 236 | 0.0 | 4.0 | 0.00 | 0.00 | 0.00 | 27 | 1015.7 |
| 20260508004531 | 70 | 0 | 0.0 | 3.0 | 0.00 | 0.00 | 0.00 | 29 | 1015.8 |
| 20260508003032 | 70 | 0 | 0.0 | 2.0 | 0.00 | 0.00 | 0.00 | 28 | 1015.8 |
| 20260508001530 | 71 | 0 | 0.0 | 4.0 | 0.00 | 0.00 | 0.00 | 30 | 1016.0 |
| 20260508000029 | 72 | 40 | 1.0 | 6.0 | 0.00 | 0.00 | 0.00 | 25 | 1016.1 |
| 20260507234529 | 73 | 0 | 2.0 | 7.0 | 0.00 | 0.00 | 0.00 | 25 | 1016.2 |
| 20260507233034 | 73 | 0 | 1.0 | 5.0 | 0.00 | 0.00 | 0.00 | 26 | 1016.3 |
| 20260507231539 | 73 | 264 | 1.0 | 8.0 | 0.00 | 0.00 | 0.00 | 24 | 1016.6 |
| 20260507230029 | 74 | 5 | 1.0 | 7.0 | 0.00 | 0.00 | 0.00 | 25 | 1016.9 |
| 20260507224531 | 74 | 0 | 1.0 | 8.0 | 0.00 | 0.00 | 0.00 | 23 | 1016.8 |
| 20260507223031 | 73 | 36 | 1.0 | 8.0 | 0.00 | 0.00 | 0.00 | 26 | 1017.0 |
| 20260507221531 | 74 | 219 | 3.0 | 10.0 | 0.00 | 0.00 | 0.00 | 27 | 1017.1 |
| 20260507220030 | 73 | 169 | 2.0 | 10.0 | 0.00 | 0.00 | 0.00 | 25 | 1017.1 |
| 20260507214532 | 73 | 265 | 1.0 | 5.0 | 0.00 | 0.00 | 0.00 | 26 | 1017.3 |
| 20260507213030 | 72 | 0 | 2.0 | 8.0 | 0.00 | 0.00 | 0.00 | 26 | 1017.7 |
| 20260507211530 | 72 | 252 | 3.0 | 9.0 | 0.00 | 0.00 | 0.00 | 28 | 1017.8 |
| 20260507210031 | 72 | 0 | 0.0 | 7.0 | 0.00 | 0.00 | 0.00 | 26 | 1018.0 |
| 20260507204527 | 70 | 275 | 0.0 | 7.0 | 0.00 | 0.00 | 0.00 | 26 | 1018.3 |
| 20260507203028 | 70 | 74 | 2.0 | 6.0 | 0.00 | 0.00 | 0.00 | 26 | 1018.5 |
| 20260507201537 | 70 | 136 | 0.0 | 6.0 | 0.00 | 0.00 | 0.00 | 27 | 1018.7 |
| 20260507200043 | 70 | 275 | 1.0 | 6.0 | 0.00 | 0.00 | 0.00 | 25 | 1018.8 |
| 20260507194532 | 69 | 0 | 1.0 | 7.0 | 0.00 | 0.00 | 0.00 | 26 | 1019.0 |
| 20260507193033 | 68 | 0 | 0.0 | 7.0 | 0.00 | 0.00 | 0.00 | 26 | 1019.3 |